Time;durP1;ratioP1;P1;durP2;ratioP2;P2;SDS_P1;SDS_P2;PMS_P1;PMS_P2;Temp;Humidity;BMP_temperature;BMP_pressure;BME280_temperature;BME280_humidity;BME280_pressure;Samples;Min_cycle;Max_cycle;Signal;HPM_P1;HPM_P2
2021/12/05 00:17:32;;;;;;;12.82;2.03;;;;;;;14.11;91.66;100368.44;4924412;28;20048;-66
2021/12/05 00:20:08;;;;;;;10.60;1.75;;;;;;;14.02;91.18;100375.56;4933714;28;20047;-65
2021/12/05 00:22:39;;;;;;;10.57;2.03;;;;;;;13.94;91.00;100371.19;4932248;29;20075;-66
2021/12/05 00:25:11;;;;;;;16.00;3.70;;;;;;;13.90;91.05;100373.88;4933899;29;20585;-66
2021/12/05 00:27:45;;;;;;;9.18;1.67;;;;;;;13.86;91.27;100382.69;4933368;28;20510;-66
2021/12/05 00:30:39;;;;;;;15.05;2.38;;;;;;;13.84;91.23;100371.25;4933070;28;20099;-65
2021/12/05 00:33:27;;;;;;;6.65;1.40;;;;;;;13.81;91.46;100368.59;4932054;29;20054;-65
2021/12/05 00:52:51;;;;;;;9.00;1.08;;;;;;;13.42;89.34;100441.19;4932830;28;20067;-65
2021/12/05 01:07:13;;;;;;;10.55;1.20;;;;;;;13.58;89.32;100458.84;4931595;29;20055;-65
2021/12/05 01:09:47;;;;;;;9.00;1.27;;;;;;;13.55;89.52;100459.72;4929347;29;20400;-65
2021/12/05 01:15:26;;;;;;;8.25;1.55;;;;;;;13.52;89.94;100461.50;4930692;29;20044;-65
2021/12/05 01:18:01;;;;;;;10.27;2.17;;;;;;;13.56;90.01;100471.22;4930433;29;20118;-65
2021/12/05 01:20:35;;;;;;;5.93;1.15;;;;;;;13.59;90.05;100467.69;4931286;29;20411;-65
2021/12/05 01:23:08;;;;;;;4.10;0.85;;;;;;;13.60;90.10;100478.28;4930097;29;20499;-65
2021/12/05 01:25:44;;;;;;;10.63;0.80;;;;;;;13.58;90.10;100461.50;4931690;28;20501;-65
2021/12/05 01:28:25;;;;;;;6.63;1.25;;;;;;;13.62;90.07;100463.25;4930941;28;20119;-65
2021/12/05 01:30:59;;;;;;;5.65;1.38;;;;;;;13.62;90.28;100468.56;4928610;28;20523;-65
2021/12/05 01:33:35;;;;;;;4.45;0.70;;;;;;;13.66;90.48;100458.81;4927128;29;20043;-65
2021/12/05 01:36:15;;;;;;;4.50;0.93;;;;;;;13.71;90.53;100454.41;4931631;28;20050;-65
2021/12/05 01:44:44;;;;;;;9.88;2.35;;;;;;;13.82;91.15;100449.94;4901003;29;20055;-65
2021/12/05 01:58:42;;;;;;;7.18;1.05;;;;;;;13.91;92.17;100442.81;4920532;29;20079;-66
2021/12/05 02:01:40;;;;;;;4.85;0.77;;;;;;;13.94;92.21;100442.81;4930073;29;20043;-65
2021/12/05 02:09:57;;;;;;;4.35;1.13;;;;;;;14.07;92.70;100434.81;4930830;28;20051;-65
2021/12/05 02:15:38;;;;;;;4.38;1.00;;;;;;;14.14;92.83;100448.06;4924422;29;20495;-65
2021/12/05 02:35:21;;;;;;;3.58;0.52;;;;;;;14.20;93.45;100473.69;4911276;29;20099;-66
2021/12/05 02:40:49;;;;;;;7.50;0.90;;;;;;;14.20;93.85;100473.69;4930126;28;20503;-66
2021/12/05 02:43:26;;;;;;;4.47;0.60;;;;;;;14.22;94.08;100482.56;4930105;29;20130;-66
2021/12/05 02:45:58;;;;;;;6.35;0.65;;;;;;;14.23;94.09;100482.56;4912531;29;20036;-66
2021/12/05 02:48:29;;;;;;;5.90;0.60;;;;;;;14.25;94.15;100487.81;4925895;29;20131;-67
2021/12/05 02:50:57;;;;;;;5.03;0.55;;;;;;;14.23;94.15;100492.28;4930173;29;20048;-67
2021/12/05 02:53:34;;;;;;;6.47;0.50;;;;;;;14.24;94.33;100489.59;4931860;29;20404;-66
2021/12/05 02:56:03;;;;;;;5.32;0.85;;;;;;;14.21;94.38;100499.34;4930042;29;20046;-65
2021/12/05 02:58:39;;;;;;;6.57;0.80;;;;;;;14.22;94.41;100498.47;4931169;28;20411;-66
2021/12/05 03:01:14;;;;;;;2.72;0.70;;;;;;;14.25;94.69;100504.66;4928587;29;20103;-66
2021/12/05 03:03:45;;;;;;;3.28;0.40;;;;;;;14.24;94.61;100505.53;4929952;28;20048;-65
2021/12/05 03:06:19;;;;;;;3.15;0.70;;;;;;;14.26;94.66;100517.03;4931250;28;20048;-65
2021/12/05 03:08:50;;;;;;;;;;;;;;;14.21;94.63;100534.75;4930949;29;20047;-65
2021/12/05 03:11:19;;;;;;;4.90;0.80;;;;;;;14.16;94.58;100552.47;4929304;29;19923;-66
2021/12/05 03:13:47;;;;;;;5.22;0.60;;;;;;;14.16;94.62;100554.25;4931133;28;20071;-65
2021/12/05 03:16:18;;;;;;;5.22;0.60;;;;;;;14.17;94.61;100563.97;4929309;29;20472;-65
2021/12/05 03:18:47;;;;;;;4.70;0.50;;;;;;;14.21;94.71;100569.28;4930087;29;20047;-65
2021/12/05 03:21:18;;;;;;;1.40;1.00;;;;;;;14.23;94.80;100578.13;4929596;29;21748;-65
2021/12/05 03:23:49;;;;;;;5.38;0.80;;;;;;;14.24;94.71;100582.53;4930009;29;20044;-65
2021/12/05 03:26:20;;;;;;;4.32;0.73;;;;;;;14.27;94.84;100584.31;4929736;29;20055;-65
2021/12/05 03:28:50;;;;;;;5.38;0.68;;;;;;;14.27;94.88;100586.97;4930274;29;20139;-65
2021/12/05 03:31:20;;;;;;;3.13;0.60;;;;;;;14.29;94.85;100590.50;4929815;29;20075;-65
2021/12/05 03:33:51;;;;;;;5.53;0.52;;;;;;;14.28;94.89;100599.34;4927432;28;20140;-67
2021/12/05 03:36:20;;;;;;;5.00;0.82;;;;;;;14.30;94.80;100600.25;4932648;29;20672;-65
2021/12/05 03:38:51;;;;;;;7.32;0.77;;;;;;;14.34;95.03;100594.91;4933884;29;20048;-65
2021/12/05 03:41:20;;;;;;;9.45;1.00;;;;;;;14.34;94.77;100594.91;4933189;29;20060;-65
2021/12/05 03:43:54;;;;;;;4.32;0.52;;;;;;;14.35;94.91;100587.84;4933661;29;20042;-66
2021/12/05 03:46:22;;;;;;;4.40;0.55;;;;;;;14.32;94.88;100598.44;4947090;28;20058;-66
2021/12/05 03:48:54;;;;;;;2.50;0.65;;;;;;;14.34;94.81;100594.03;4934910;28;20047;-66
2021/12/05 03:51:27;;;;;;;2.47;0.50;;;;;;;14.34;95.03;100607.31;4934586;28;20132;-66
2021/12/05 03:53:57;;;;;;;4.53;0.75;;;;;;;14.32;95.00;100609.06;4932962;29;20743;-66
2021/12/05 03:56:26;;;;;;;7.78;0.95;;;;;;;14.31;94.86;100607.28;4932909;28;20043;-66
2021/12/05 03:58:55;;;;;;;4.28;0.63;;;;;;;14.31;95.09;100609.94;4932027;29;20044;-66
2021/12/05 04:01:24;;;;;;;4.82;0.95;;;;;;;14.28;95.07;100610.84;4918066;28;20056;-65
2021/12/05 04:03:55;;;;;;;1.77;0.47;;;;;;;14.30;94.99;100608.22;4932640;29;20040;-65
2021/12/05 04:06:27;;;;;;;5.72;0.70;;;;;;;14.28;95.08;100621.47;4931676;29;20060;-66
2021/12/05 04:09:03;;;;;;;6.70;1.75;;;;;;;14.30;95.13;100627.69;4898609;29;20033;-65
2021/12/05 04:11:36;;;;;;;13.07;4.60;;;;;;;14.27;94.95;100638.28;4924642;28;20130;-65
2021/12/05 04:14:05;;;;;;;7.03;2.35;;;;;;;14.25;94.89;100642.72;4932691;29;20106;-66
2021/12/05 04:16:34;;;;;;;5.03;2.03;;;;;;;14.25;94.99;100658.63;4931203;28;20074;-66
2021/12/05 04:19:02;;;;;;;9.98;2.38;;;;;;;14.28;95.05;100658.66;4930597;29;20050;-65
2021/12/05 04:21:31;;;;;;;9.52;3.17;;;;;;;14.30;95.05;100659.53;4932598;29;20056;-65
2021/12/05 04:24:01;;;;;;;9.45;2.80;;;;;;;14.32;95.00;100652.44;4934059;29;20301;-65
2021/12/05 04:26:31;;;;;;;6.50;1.27;;;;;;;14.32;95.08;100649.78;4928140;29;20067;-65
2021/12/05 04:28:58;;;;;;;6.18;1.77;;;;;;;14.30;95.06;100646.28;4931877;29;20051;-66
2021/12/05 04:31:27;;;;;;;5.90;1.30;;;;;;;14.28;95.04;100663.06;4932288;29;20456;-65
2021/12/05 04:33:55;;;;;;;8.95;1.33;;;;;;;14.29;94.85;100662.19;4932962;29;20592;-66
2021/12/05 04:36:24;;;;;;;2.42;0.70;;;;;;;14.30;94.74;100671.94;4913484;29;20512;-66
2021/12/05 04:38:53;;;;;;;4.40;1.02;;;;;;;14.26;94.83;100670.16;4925527;29;20135;-66
2021/12/05 04:41:24;;;;;;;4.70;1.08;;;;;;;14.29;94.78;100672.81;4932926;29;20055;-65
2021/12/05 04:43:51;;;;;;;6.43;1.98;;;;;;;14.27;94.73;100674.56;4931260;29;20512;-66
2021/12/05 04:46:25;;;;;;;6.72;1.33;;;;;;;14.30;94.57;100679.91;4917484;29;20050;-65
2021/12/05 04:48:55;;;;;;;5.57;1.45;;;;;;;14.29;94.82;100684.31;4932180;29;20036;-66
2021/12/05 04:51:27;;;;;;;6.35;1.55;;;;;;;14.28;94.67;100690.53;4931549;28;20138;-65
2021/12/05 04:53:55;;;;;;;7.43;1.77;;;;;;;14.34;94.76;100692.28;4931833;29;20071;-65
2021/12/05 04:56:26;;;;;;;7.93;2.67;;;;;;;14.41;94.73;100703.81;4931958;28;20044;-66
2021/12/05 04:58:56;;;;;;;13.65;1.70;;;;;;;14.42;94.69;100711.78;4931620;28;20044;-65
2021/12/05 05:01:29;;;;;;;;;;;;;;;14.44;94.75;100717.09;4932406;28;20142;-66
2021/12/05 05:03:57;;;;;;;13.30;1.40;;;;;;;14.46;94.89;100729.47;4932837;28;19923;-65
2021/12/05 05:06:25;;;;;;;4.32;0.98;;;;;;;14.48;94.94;100729.50;4933150;28;20141;-65
2021/12/05 05:08:55;;;;;;;6.28;0.90;;;;;;;14.53;94.99;100731.25;4932995;28;20043;-65
2021/12/05 05:11:26;;;;;;;15.18;5.07;;;;;;;14.57;95.05;100732.16;4931405;28;20071;-65
2021/12/05 05:13:56;;;;;;;15.80;4.43;;;;;;;14.57;95.15;100734.81;4931305;28;20046;-65
2021/12/05 05:16:26;;;;;;;10.32;2.53;;;;;;;14.59;95.16;100736.56;4932462;28;20040;-65
2021/12/05 05:18:57;;;;;;;4.80;1.70;;;;;;;14.57;95.30;100748.94;4932727;29;20088;-66
2021/12/05 05:29:51;;;;;;;8.88;3.42;;;;;;;14.58;95.33;100753.38;4926403;28;20385;-65
2021/12/05 05:46:11;;;;;;;9.38;2.70;;;;;;;14.75;95.58;100774.63;4931370;28;20046;-65
2021/12/05 05:48:48;;;;;;;7.80;2.50;;;;;;;14.84;95.55;100776.38;4932353;28;20040;-65
2021/12/05 05:51:17;;;;;;;5.82;2.03;;;;;;;14.90;95.83;100781.69;4931088;29;20111;-65
2021/12/05 05:53:47;;;;;;;5.88;2.00;;;;;;;14.97;95.67;100780.78;4932101;28;20551;-65
2021/12/05 05:56:17;;;;;;;4.43;2.10;;;;;;;15.04;95.82;100775.44;4929616;28;20054;-65
2021/12/05 05:58:52;;;;;;;11.23;4.68;;;;;;;15.13;95.82;100778.09;4931577;28;20052;-65
2021/12/05 06:01:33;;;;;;;8.13;5.40;;;;;;;15.14;95.90;100774.53;4914362;29;20492;-65
2021/12/05 06:03:59;;;;;;;11.18;4.78;;;;;;;15.20;95.85;100775.41;4913340;29;20044;-66
2021/12/05 06:06:30;;;;;;;4.75;2.70;;;;;;;15.19;95.90;100773.63;4913696;29;20104;-65
2021/12/05 06:08:58;;;;;;;4.75;1.50;;;;;;;15.18;95.92;100771.84;4932152;28;20107;-66
2021/12/05 06:11:26;;;;;;;4.47;1.25;;;;;;;15.10;96.00;100770.09;4927656;28;20124;-66
2021/12/05 06:13:56;;;;;;;2.47;0.85;;;;;;;14.99;95.88;100766.59;4911974;29;20040;-66
2021/12/05 06:16:23;;;;;;;3.55;1.10;;;;;;;14.89;95.78;100766.63;4931542;29;20048;-66
2021/12/05 06:18:51;;;;;;;5.68;0.93;;;;;;;14.86;95.71;100758.66;4932186;28;20050;-65
2021/12/05 06:21:19;;;;;;;4.05;1.13;;;;;;;14.81;95.73;100749.81;4930995;28;20059;-66
2021/12/05 06:23:47;;;;;;;5.03;2.15;;;;;;;14.75;95.71;100761.34;4929980;28;20043;-65
2021/12/05 06:26:21;;;;;;;9.60;1.48;;;;;;;14.76;95.61;100768.44;4929753;28;20119;-66
2021/12/05 06:29:00;;;;;;;3.40;1.25;;;;;;;14.80;95.46;100772.84;4931663;28;20130;-66
2021/12/05 06:31:44;;;;;;;7.13;1.45;;;;;;;14.86;95.57;100770.16;4926910;28;20127;-66
2021/12/05 06:37:13;;;;;;;;;;;;;;;14.94;95.55;100797.63;4925006;28;20092;-66
2021/12/05 06:39:46;;;;;;;4.78;1.00;;;;;;;15.01;95.50;100806.47;4923416;28;20399;-66
2021/12/05 06:47:55;;;;;;;4.57;1.15;;;;;;;15.28;95.80;100811.75;4924618;28;20043;-66
2021/12/05 06:50:23;;;;;;;12.68;2.30;;;;;;;15.33;95.62;100809.94;4924361;28;20507;-65
2021/12/05 06:52:51;;;;;;;7.43;1.98;;;;;;;15.41;95.75;100808.16;4930728;28;20448;-65
2021/12/05 06:55:19;;;;;;;17.55;3.08;;;;;;;15.44;95.81;100821.41;4931567;28;20528;-65
2021/12/05 06:57:47;;;;;;;6.03;2.15;;;;;;;15.40;95.60;100822.34;4931719;28;20114;-65
2021/12/05 07:00:19;;;;;;;10.52;1.98;;;;;;;15.41;95.70;100831.22;4930308;28;20046;-66
2021/12/05 07:02:47;;;;;;;5.40;1.45;;;;;;;15.42;95.83;100830.31;4930208;28;20044;-65
2021/12/05 07:08:05;;;;;;;8.68;3.13;;;;;;;15.44;96.02;100832.06;4922915;28;20047;-66
2021/12/05 07:10:40;;;;;;;9.23;4.07;;;;;;;15.47;96.04;100839.16;4933182;28;20452;-65
2021/12/05 07:16:07;;;;;;;4.35;1.40;;;;;;;15.55;96.10;100845.38;4934328;28;20770;-66
2021/12/05 07:18:43;;;;;;;6.88;0.88;;;;;;;15.53;96.10;100850.72;4934114;28;20047;-65
2021/12/05 07:21:33;;;;;;;3.00;0.80;;;;;;;15.58;96.20;100850.69;4934390;28;20051;-65
2021/12/05 07:24:10;;;;;;;5.10;1.10;;;;;;;15.58;96.19;100873.75;4922943;28;20039;-65
2021/12/05 07:26:52;;;;;;;7.20;1.42;;;;;;;15.61;96.31;100873.75;4934343;28;20183;-65
2021/12/05 07:40:26;;;;;;;2.42;0.77;;;;;;;15.99;96.19;100892.22;4929346;28;20580;-67
2021/12/05 07:42:54;;;;;;;3.33;0.88;;;;;;;15.99;96.41;100889.56;4918463;28;20440;-66
2021/12/05 07:45:29;;;;;;;6.40;2.13;;;;;;;16.00;96.49;100891.34;4920078;28;20472;-66
2021/12/05 07:48:01;;;;;;;5.82;1.90;;;;;;;16.17;96.58;100900.13;4927594;28;20043;-66
2021/12/05 07:50:39;;;;;;;3.03;0.85;;;;;;;16.36;96.56;100907.13;4930468;28;20040;-65
2021/12/05 07:53:17;;;;;;;3.25;0.93;;;;;;;16.43;96.59;100911.53;4933782;28;20047;-65
2021/12/05 07:55:48;;;;;;;8.45;1.00;;;;;;;16.50;96.55;100915.91;4920767;28;20055;-65
2021/12/05 07:58:31;;;;;;;5.07;0.60;;;;;;;16.60;96.45;100922.13;4922698;28;20055;-65
2021/12/05 08:01:22;;;;;;;4.40;0.65;;;;;;;16.71;96.32;100921.16;4911909;29;20488;-65
2021/12/05 08:14:53;;;;;;;4.70;1.08;;;;;;;17.46;94.75;100960.53;4920754;29;20400;-65
2021/12/05 08:17:21;;;;;;;4.03;0.95;;;;;;;17.54;94.63;100961.34;4926001;28;20051;-65
2021/12/05 08:19:49;;;;;;;6.20;0.85;;;;;;;17.60;94.79;100963.97;4930275;28;20051;-66
2021/12/05 08:22:19;;;;;;;3.00;0.68;;;;;;;17.64;94.49;100975.53;4926558;28;20067;-66
2021/12/05 08:24:51;;;;;;;8.50;0.95;;;;;;;17.59;94.31;100982.69;4928163;29;20048;-66
2021/12/05 08:27:18;;;;;;;6.28;1.23;;;;;;;17.51;94.25;100990.75;4925805;28;20044;-66
2021/12/05 08:29:53;;;;;;;1.98;0.60;;;;;;;17.48;94.29;100988.09;4929673;28;20091;-66
2021/12/05 08:32:33;;;;;;;6.85;1.92;;;;;;;17.39;94.40;100994.41;4926938;28;20063;-66
2021/12/05 08:35:12;;;;;;;3.03;0.63;;;;;;;17.25;94.43;100985.66;4926785;28;21249;-66
2021/12/05 08:43:43;;;;;;;4.63;0.80;;;;;;;17.07;94.99;100980.44;4861161;29;20095;-66
2021/12/05 08:46:26;;;;;;;5.10;1.23;;;;;;;17.20;95.26;100987.44;4912556;28;20101;-66
2021/12/05 09:08:50;;;;;;;6.38;2.95;;;;;;;19.55;91.09;100993.50;4921861;28;20111;-65
2021/12/05 09:20:33;;;;;;;1.52;0.40;;;;;;;19.30;90.14;101012.59;4925880;28;20500;-67
2021/12/05 09:38:29;;;;;;;7.90;0.88;;;;;;;18.54;89.31;101003.00;4928578;28;20043;-67
2021/12/05 09:51:16;;;;;;;3.38;0.80;;;;;;;19.67;85.42;101006.66;4922403;28;20043;-67
2021/12/05 10:10:34;;;;;;;6.03;2.17;;;;;;;19.98;83.87;100978.38;4917176;28;20051;-66
2021/12/05 10:13:11;;;;;;;14.95;6.35;;;;;;;19.70;83.04;100969.09;4927370;28;20056;-65
2021/12/05 10:35:38;;;;;;;3.50;0.50;;;;;;;20.08;81.59;100997.84;4918443;28;20118;-66
2021/12/05 10:38:14;;;;;;;7.05;0.80;;;;;;;20.50;80.50;100997.00;4928852;28;20043;-66
2021/12/05 10:40:48;;;;;;;3.70;0.98;;;;;;;20.59;78.81;100996.81;4922094;28;20060;-66
2021/12/05 10:43:18;;;;;;;3.03;0.60;;;;;;;20.59;78.03;101002.16;4923222;28;20051;-66
2021/12/05 10:45:50;;;;;;;2.75;0.60;;;;;;;20.63;78.12;101002.97;4928813;28;20043;-66
2021/12/05 10:48:26;;;;;;;5.68;0.80;;;;;;;20.53;77.10;101001.41;4928938;28;20416;-66
2021/12/05 10:50:56;;;;;;;4.13;0.60;;;;;;;20.34;76.51;101000.03;4923731;28;20156;-66
2021/12/05 10:53:33;;;;;;;4.00;0.70;;;;;;;20.21;76.84;100997.59;4927935;28;20110;-67
2021/12/05 10:56:07;;;;;;;5.35;0.45;;;;;;;20.10;74.76;101002.25;4924129;28;20507;-66
2021/12/05 10:58:39;;;;;;;10.50;0.70;;;;;;;20.11;75.00;100997.78;4940464;28;20054;-66
2021/12/05 11:01:14;;;;;;;5.15;0.57;;;;;;;20.08;74.99;100997.84;4920595;28;20500;-66
2021/12/05 11:03:42;;;;;;;5.13;0.52;;;;;;;19.85;73.63;101000.97;4926203;28;20139;-66
2021/12/05 11:06:32;;;;;;;5.85;0.80;;;;;;;19.63;73.24;101012.97;4925572;28;20044;-66
2021/12/05 11:09:05;;;;;;;4.05;1.02;;;;;;;19.43;71.92;101002.56;4917054;28;20135;-66
2021/12/05 11:11:35;;;;;;;6.00;0.88;;;;;;;19.32;72.16;101002.75;4925474;28;20620;-66
2021/12/05 11:14:08;;;;;;;6.82;0.90;;;;;;;19.36;72.49;100990.22;4917702;28;20048;-66
2021/12/05 11:16:39;;;;;;;5.83;0.83;;;;;;;19.34;72.20;100997.38;4926579;28;20981;-66
2021/12/05 11:19:13;;;;;;;4.07;0.60;;;;;;;19.45;72.47;100990.91;4926407;28;20039;-66
2021/12/05 11:21:47;;;;;;;4.78;1.05;;;;;;;19.77;72.76;100987.69;4924167;28;20098;-66
2021/12/05 11:24:22;;;;;;;8.30;1.77;;;;;;;19.98;71.13;100993.56;4922483;28;20059;-66
2021/12/05 11:27:28;;;;;;;4.05;0.82;;;;;;;20.12;70.46;100987.03;4921294;29;20054;-66
2021/12/05 11:30:04;;;;;;;15.88;3.85;;;;;;;20.36;70.45;100982.09;4921025;28;20081;-67
2021/12/05 11:32:38;;;;;;;11.68;3.63;;;;;;;20.41;69.17;100973.06;4929308;28;20044;-66
2021/12/05 11:35:37;;;;;;;8.13;1.67;;;;;;;20.41;69.09;100986.47;4927109;28;20047;-66
2021/12/05 11:38:09;;;;;;;7.40;1.63;;;;;;;20.41;69.29;100996.31;4913432;28;20051;-67
2021/12/05 11:40:49;;;;;;;6.90;1.80;;;;;;;20.43;69.04;100986.41;4918369;29;20546;-67
2021/12/05 11:43:24;;;;;;;4.25;1.42;;;;;;;20.40;68.03;100991.88;4931216;28;20467;-67
2021/12/05 11:45:56;;;;;;;8.25;1.33;;;;;;;20.16;67.19;100991.41;4930629;28;20048;-67
2021/12/05 11:48:34;;;;;;;4.55;0.98;;;;;;;20.15;67.24;100988.78;4920372;28;20059;-67
2021/12/05 11:51:17;;;;;;;6.28;0.95;;;;;;;20.16;67.38;100985.16;4912174;29;20484;-67
2021/12/05 11:53:48;;;;;;;5.50;0.77;;;;;;;20.09;67.09;100992.44;4915654;29;20040;-67
2021/12/05 11:56:23;;;;;;;12.73;3.78;;;;;;;20.03;67.19;100997.03;4927068;28;20118;-67
2021/12/05 11:59:08;;;;;;;7.45;1.75;;;;;;;19.96;66.82;100995.38;4925816;29;20052;-67
2021/12/05 12:01:38;;;;;;;4.80;1.00;;;;;;;19.96;66.74;100987.34;4925834;28;20048;-67
2021/12/05 12:04:06;;;;;;;4.20;0.90;;;;;;;19.95;66.77;100980.25;4934084;28;20524;-67
2021/12/05 12:06:35;;;;;;;4.80;1.00;;;;;;;19.89;66.73;100982.09;4932943;28;20056;-67
2021/12/05 12:09:03;;;;;;;3.25;1.00;;;;;;;19.83;66.53;100986.69;4932048;28;20047;-67
2021/12/05 12:11:32;;;;;;;10.63;1.55;;;;;;;19.79;65.60;100985.00;4931993;28;20042;-68
2021/12/05 12:14:00;;;;;;;2.63;0.80;;;;;;;19.70;65.82;100988.72;4918534;29;20062;-67
2021/12/05 12:16:33;;;;;;;5.97;0.80;;;;;;;19.67;65.83;100985.22;4928266;28;20075;-67
2021/12/05 12:19:03;;;;;;;4.60;1.20;;;;;;;19.65;66.06;100977.22;4929559;28;20134;-67
2021/12/05 12:21:39;;;;;;;7.15;1.00;;;;;;;19.64;66.17;100975.44;4934444;29;20044;-66
2021/12/05 12:24:10;;;;;;;5.00;0.88;;;;;;;19.58;66.51;100986.28;4932491;29;20048;-67
2021/12/05 12:26:39;;;;;;;6.93;1.60;;;;;;;19.52;66.84;100983.69;4933465;28;20139;-67
2021/12/05 12:29:08;;;;;;;3.97;1.20;;;;;;;19.47;66.49;100982.91;4934208;28;20075;-67
2021/12/05 12:31:37;;;;;;;7.93;1.60;;;;;;;19.37;66.02;100984.81;4933731;28;20053;-67
2021/12/05 12:34:08;;;;;;;8.05;1.67;;;;;;;19.38;66.23;100993.72;4934115;28;20047;-67
2021/12/05 12:36:38;;;;;;;8.32;1.92;;;;;;;19.34;66.56;100992.03;4932866;28;20058;-67
2021/12/05 12:39:25;;;;;;;5.68;2.10;;;;;;;19.26;66.34;100996.59;4933367;28;20134;-69
2021/12/05 12:42:15;;;;;;;5.05;1.25;;;;;;;19.17;65.82;100999.41;4932292;29;20111;-69
2021/12/05 12:45:16;;;;;;;1.90;0.60;;;;;;;19.04;65.61;100996.94;4933719;29;20055;-69
2021/12/05 12:47:46;;;;;;;7.78;1.23;;;;;;;18.93;65.97;100990.00;4874362;29;20052;-67
2021/12/05 12:50:34;;;;;;;5.10;1.08;;;;;;;18.92;65.84;100990.88;4907296;29;20052;-67
2021/12/05 12:53:22;;;;;;;4.30;1.15;;;;;;;18.89;65.71;101005.22;4924574;29;20051;-67
2021/12/05 12:55:58;;;;;;;5.22;1.77;;;;;;;18.86;66.03;101004.34;4933679;29;20113;-67
2021/12/05 12:58:42;;;;;;;8.70;1.50;;;;;;;18.75;65.60;101012.56;4933495;29;20130;-66
2021/12/05 13:02:01;;;;;;;20.15;10.80;;;;;;;18.68;66.04;101008.19;5086226;27;20413;-66
2021/12/05 13:04:57;;;;;;;16.27;10.75;;;;;;;18.70;66.11;101003.72;5086495;28;20058;-66
2021/12/05 13:10:26;;;;;;;8.65;1.50;;;;;;;18.71;66.25;101016.16;5106469;28;20054;-67
2021/12/05 13:12:58;;;;;;;5.85;0.80;;;;;;;18.64;66.54;101006.47;5106407;28;20048;-67
2021/12/05 13:15:37;;;;;;;7.03;1.50;;;;;;;18.60;66.28;101002.94;5106495;28;20050;-67
2021/12/05 13:18:23;;;;;;;5.55;0.90;;;;;;;18.58;66.55;101006.53;5105538;28;20032;-67
2021/12/05 13:21:03;;;;;;;2.60;0.80;;;;;;;18.52;66.44;101014.59;5064928;28;20404;-67
2021/12/05 13:23:40;;;;;;;6.38;1.10;;;;;;;18.45;66.43;101011.13;5065478;28;20140;-67
2021/12/05 13:26:14;;;;;;;6.43;2.30;;;;;;;18.32;66.20;101026.44;5084744;28;20510;-68
2021/12/05 13:28:44;;;;;;;5.82;1.65;;;;;;;18.28;66.70;101029.16;5104994;28;20113;-68
2021/12/05 13:31:35;;;;;;;4.82;0.85;;;;;;;18.29;66.55;101033.59;5106375;28;20094;-68
2021/12/05 13:34:36;;;;;;;9.38;1.50;;;;;;;18.24;66.90;101036.34;5104949;28;20100;-68
2021/12/05 13:37:38;;;;;;;6.47;1.70;;;;;;;18.20;67.17;101033.69;5104532;28;20121;-68
2021/12/05 13:40:17;;;;;;;7.07;1.60;;;;;;;18.17;67.22;101040.00;5102760;28;20035;-68
2021/12/05 13:42:49;;;;;;;4.30;1.10;;;;;;;18.11;67.42;101045.41;5105169;28;20131;-68
2021/12/05 13:45:23;;;;;;;10.00;1.50;;;;;;;18.05;67.52;101041.91;5105849;28;20042;-67
2021/12/05 13:48:17;;;;;;;10.30;2.25;;;;;;;18.01;67.76;101046.38;5106470;28;20127;-68
2021/12/05 13:50:50;;;;;;;4.95;1.33;;;;;;;17.99;67.77;101041.94;5066715;28;20395;-68
2021/12/05 13:53:27;;;;;;;4.82;1.20;;;;;;;17.93;67.82;101048.22;5085053;28;20109;-68
2021/12/05 13:56:04;;;;;;;5.68;1.50;;;;;;;17.88;68.05;101044.72;5073635;28;20124;-68
2021/12/05 13:58:45;;;;;;;6.43;0.93;;;;;;;17.81;68.25;101048.34;5064344;28;20515;-68
2021/12/05 14:01:19;;;;;;;6.85;1.40;;;;;;;17.76;68.51;101060.88;5062133;28;20060;-68
2021/12/05 14:03:52;;;;;;;5.55;2.05;;;;;;;17.69;68.72;101052.03;5064781;28;20055;-67
2021/12/05 14:06:41;;;;;;;6.40;0.73;;;;;;;17.67;68.69;101055.59;5063774;28;20139;-68
2021/12/05 14:09:18;;;;;;;4.03;1.25;;;;;;;17.62;68.65;101057.44;5081458;28;20048;-68
2021/12/05 14:11:50;;;;;;;7.97;1.00;;;;;;;17.59;68.89;101049.44;5077376;28;20049;-67
2021/12/05 14:14:22;;;;;;;11.30;2.35;;;;;;;17.56;68.83;101053.00;5077125;28;20045;-68
2021/12/05 14:16:51;;;;;;;12.05;4.25;;;;;;;17.52;69.02;101065.47;5075736;28;20048;-68
2021/12/05 14:19:22;;;;;;;14.50;4.57;;;;;;;17.47;68.98;101055.75;5068695;28;20119;-67
2021/12/05 14:21:54;;;;;;;5.13;1.52;;;;;;;17.37;69.24;101062.94;5049305;28;20397;-68
2021/12/05 14:24:24;;;;;;;2.05;0.63;;;;;;;17.27;69.36;101058.56;5044712;28;20762;-67
2021/12/05 14:26:53;;;;;;;9.77;2.53;;;;;;;17.24;69.67;101066.59;5048908;28;20063;-68
2021/12/05 14:29:24;;;;;;;5.70;1.90;;;;;;;17.24;69.73;101061.25;5043807;28;20393;-67
2021/12/05 14:31:55;;;;;;;10.70;3.45;;;;;;;17.24;69.77;101065.72;5050074;28;20048;-67
2021/12/05 14:34:23;;;;;;;6.05;2.17;;;;;;;17.18;69.72;101071.97;5038300;28;20048;-67
2021/12/05 14:36:55;;;;;;;7.18;2.60;;;;;;;17.17;69.93;101072.88;5044664;28;20094;-67
2021/12/05 14:39:27;;;;;;;28.83;11.25;;;;;;;17.12;70.26;101070.25;5044597;28;20167;-68
2021/12/05 14:41:56;;;;;;;5.45;2.40;;;;;;;17.07;70.67;101072.03;5044828;28;20057;-68
2021/12/05 14:44:24;;;;;;;17.95;10.20;;;;;;;16.96;71.49;101079.22;5046205;28;20165;-68
2021/12/05 14:47:00;;;;;;;9.65;5.43;;;;;;;16.88;72.02;101072.13;5044370;28;20049;-67
2021/12/05 14:49:31;;;;;;;5.18;1.00;;;;;;;16.79;72.46;101075.75;5042394;28;20041;-68
2021/12/05 14:52:03;;;;;;;10.70;1.10;;;;;;;16.73;72.62;101076.69;5029504;28;20041;-68
2021/12/05 14:54:35;;;;;;;4.45;1.38;;;;;;;16.64;72.90;101084.69;5047538;28;20052;-67
2021/12/05 14:57:08;;;;;;;4.07;1.23;;;;;;;16.56;73.34;101082.91;5046716;28;20059;-67
2021/12/05 14:59:36;;;;;;;7.03;1.63;;;;;;;16.47;73.58;101083.84;5084433;28;20131;-68
2021/12/05 15:02:05;;;;;;;4.82;1.30;;;;;;;16.41;73.98;101090.97;5058763;28;20492;-68
2021/12/05 15:04:37;;;;;;;6.47;1.50;;;;;;;16.37;73.86;101092.75;5047070;28;20048;-68
2021/12/05 15:07:08;;;;;;;5.95;2.53;;;;;;;16.26;74.29;101094.56;5042308;28;20037;-68
2021/12/05 15:09:38;;;;;;;13.13;4.75;;;;;;;16.16;74.64;101095.47;5054247;28;20495;-68
2021/12/05 15:12:09;;;;;;;24.02;15.55;;;;;;;16.14;74.53;101097.25;5075503;28;20090;-68
2021/12/05 15:14:40;;;;;;;15.00;9.23;;;;;;;16.13;74.47;101099.03;5040662;28;20505;-69
2021/12/05 15:17:12;;;;;;;25.35;19.08;;;;;;;16.14;74.15;101099.94;5028171;28;20034;-68
2021/12/05 15:19:43;;;;;;;41.45;25.67;;;;;;;16.09;74.03;101096.34;5047585;28;20076;-68
2021/12/05 15:22:15;;;;;;;41.55;31.70;;;;;;;16.02;74.16;101094.59;5034722;28;20041;-68
2021/12/05 15:24:51;;;;;;;36.83;25.15;;;;;;;15.94;74.36;101106.16;5031708;28;20082;-68
2021/12/05 15:27:23;;;;;;;27.50;18.83;;;;;;;15.90;74.33;101106.16;5045862;28;20048;-69
2021/12/05 15:29:54;;;;;;;15.63;9.25;;;;;;;15.84;74.34;101107.03;5036708;28;20492;-68
2021/12/05 15:32:25;;;;;;;20.73;13.18;;;;;;;15.82;74.25;101107.91;5048105;28;20075;-67
2021/12/05 15:34:54;;;;;;;22.83;17.20;;;;;;;15.79;74.23;101116.81;5059468;28;20045;-67
2021/12/05 15:37:24;;;;;;;38.45;24.65;;;;;;;15.79;74.04;101122.13;5066993;28;20094;-67
2021/12/05 15:39:54;;;;;;;26.33;20.53;;;;;;;15.72;74.16;101128.34;5060208;28;20048;-68
2021/12/05 15:42:25;;;;;;;25.80;19.15;;;;;;;15.67;74.33;101126.56;5064793;28;20831;-67
2021/12/05 15:44:55;;;;;;;36.90;26.67;;;;;;;15.57;74.43;101133.66;5048044;28;20137;-68
2021/12/05 15:47:25;;;;;;;54.65;34.97;;;;;;;15.57;74.50;101133.66;5067490;28;20132;-67
2021/12/05 15:50:01;;;;;;;46.97;31.98;;;;;;;15.57;74.54;101133.66;5055408;28;20061;-67
2021/12/05 15:52:38;;;;;;;50.28;35.70;;;;;;;15.55;74.65;101132.78;5047513;28;20120;-68
2021/12/05 15:55:11;;;;;;;44.33;33.47;;;;;;;15.53;74.70;101135.44;5042985;28;20041;-68
2021/12/05 15:57:43;;;;;;;57.00;39.35;;;;;;;15.51;74.81;101137.16;5040914;28;20046;-67
2021/12/05 16:00:16;;;;;;;52.28;37.80;;;;;;;15.43;74.92;101136.25;5067575;28;20048;-68
2021/12/05 16:02:47;;;;;;;62.20;51.20;;;;;;;15.40;75.05;101146.00;5100755;28;20055;-67
2021/12/05 16:05:20;;;;;;;54.83;46.38;;;;;;;15.43;74.80;101146.00;5050176;28;20049;-67
2021/12/05 16:07:51;;;;;;;55.30;41.92;;;;;;;15.38;74.97;101142.44;5064238;28;20073;-67